sensor_id;sensor_type;location;lat;lon;timestamp;pressure;altitude;pressure_sealevel;temperature;humidity
9893;BME280;4985;49.092;8.542;2022-07-29T00:01:15;99066.56;;;24.92;45.41
9893;BME280;4985;49.092;8.542;2022-07-29T00:03:42;99067.12;;;24.94;45.49
9893;BME280;4985;49.092;8.542;2022-07-29T00:06:09;99066.56;;;24.92;45.16
9893;BME280;4985;49.092;8.542;2022-07-29T00:08:35;99071.66;;;24.89;45.15
9893;BME280;4985;49.092;8.542;2022-07-29T00:11:02;99078.66;;;24.90;45.22
9893;BME280;4985;49.092;8.542;2022-07-29T00:13:29;99063.28;;;24.85;45.52
9893;BME280;4985;49.092;8.542;2022-07-29T00:15:56;99062.50;;;24.85;45.81
9893;BME280;4985;49.092;8.542;2022-07-29T00:18:23;99060.06;;;24.83;46.08
9893;BME280;4985;49.092;8.542;2022-07-29T00:20:50;99054.94;;;24.82;46.25
9893;BME280;4985;49.092;8.542;2022-07-29T00:23:16;99055.19;;;24.80;46.34
9893;BME280;4985;49.092;8.542;2022-07-29T00:25:43;99053.06;;;24.82;46.33
9893;BME280;4985;49.092;8.542;2022-07-29T00:28:09;99046.59;;;24.83;46.27
9893;BME280;4985;49.092;8.542;2022-07-29T00:30:36;99049.56;;;24.82;46.17
9893;BME280;4985;49.092;8.542;2022-07-29T00:33:04;99047.69;;;24.82;46.14
9893;BME280;4985;49.092;8.542;2022-07-29T00:35:31;99052.47;;;24.80;46.13
9893;BME280;4985;49.092;8.542;2022-07-29T00:38:12;99041.47;;;24.82;46.29
9893;BME280;4985;49.092;8.542;2022-07-29T00:40:40;99053.31;;;24.81;46.35
9893;BME280;4985;49.092;8.542;2022-07-29T00:43:07;99045.78;;;24.83;46.29
9893;BME280;4985;49.092;8.542;2022-07-29T00:45:34;99043.59;;;24.80;46.36
9893;BME280;4985;49.092;8.542;2022-07-29T00:48:01;99034.72;;;24.79;46.46
9893;BME280;4985;49.092;8.542;2022-07-29T00:50:30;99033.91;;;24.79;46.54
9893;BME280;4985;49.092;8.542;2022-07-29T00:52:57;99024.47;;;24.76;46.63
9893;BME280;4985;49.092;8.542;2022-07-29T00:55:24;99023.41;;;24.77;46.78
9893;BME280;4985;49.092;8.542;2022-07-29T00:57:52;99016.41;;;24.71;46.92
9893;BME280;4985;49.092;8.542;2022-07-29T01:00:22;99018.28;;;24.76;46.97
9893;BME280;4985;49.092;8.542;2022-07-29T01:02:50;99019.91;;;24.77;46.84
9893;BME280;4985;49.092;8.542;2022-07-29T01:05:18;99011.56;;;24.78;46.81
9893;BME280;4985;49.092;8.542;2022-07-29T01:07:49;99020.19;;;24.80;46.74
9893;BME280;4985;49.092;8.542;2022-07-29T01:10:18;99013.75;;;24.81;46.61
9893;BME280;4985;49.092;8.542;2022-07-29T01:12:48;99014.81;;;24.80;46.63
9893;BME280;4985;49.092;8.542;2022-07-29T01:15:15;99027.75;;;24.88;47.24
9893;BME280;4985;49.092;8.542;2022-07-29T01:17:44;99026.63;;;24.79;47.65
9893;BME280;4985;49.092;8.542;2022-07-29T01:20:18;99032.00;;;24.74;47.70
9893;BME280;4985;49.092;8.542;2022-07-29T01:23:07;99040.63;;;24.76;47.58
9893;BME280;4985;49.092;8.542;2022-07-29T01:25:48;99033.63;;;24.75;47.15
9893;BME280;4985;49.092;8.542;2022-07-29T01:31:28;99028.25;;;24.80;45.93
9893;BME280;4985;49.092;8.542;2022-07-29T01:33:58;99024.78;;;24.85;45.79
9893;BME280;4985;49.092;8.542;2022-07-29T01:36:32;99021.28;;;24.84;45.91
9893;BME280;4985;49.092;8.542;2022-07-29T01:39:06;99030.19;;;24.85;46.05
9893;BME280;4985;49.092;8.542;2022-07-29T01:41:37;99028.03;;;24.82;46.16
9893;BME280;4985;49.092;8.542;2022-07-29T01:44:13;99024.78;;;24.85;45.73
9893;BME280;4985;49.092;8.542;2022-07-29T01:46:48;99019.97;;;24.87;45.56
9893;BME280;4985;49.092;8.542;2022-07-29T01:49:20;99018.87;;;24.88;45.58
9893;BME280;4985;49.092;8.542;2022-07-29T01:51:50;99022.38;;;24.88;45.53
9893;BME280;4985;49.092;8.542;2022-07-29T01:54:20;99022.12;;;24.90;45.50
9893;BME280;4985;49.092;8.542;2022-07-29T01:56:51;99017.00;;;24.88;45.43
9893;BME280;4985;49.092;8.542;2022-07-29T01:59:21;99027.50;;;24.90;45.34
9893;BME280;4985;49.092;8.542;2022-07-29T02:01:53;99025.63;;;24.90;45.35
9893;BME280;4985;49.092;8.542;2022-07-29T02:04:21;99028.88;;;24.92;45.64
9893;BME280;4985;49.092;8.542;2022-07-29T02:06:50;99031.53;;;24.87;45.62
9893;BME280;4985;49.092;8.542;2022-07-29T02:09:20;99022.38;;;24.88;45.46
9893;BME280;4985;49.092;8.542;2022-07-29T02:11:51;99024.81;;;24.90;45.51
9893;BME280;4985;49.092;8.542;2022-07-29T02:14:20;99025.31;;;24.82;46.29
9893;BME280;4985;49.092;8.542;2022-07-29T02:16:49;99022.88;;;24.75;46.72
9893;BME280;4985;49.092;8.542;2022-07-29T02:19:21;99025.00;;;24.73;47.07
9893;BME280;4985;49.092;8.542;2022-07-29T02:21:51;99025.78;;;24.68;47.27
9893;BME280;4985;49.092;8.542;2022-07-29T02:24:20;99022.31;;;24.78;47.84
9893;BME280;4985;49.092;8.542;2022-07-29T02:26:49;99020.44;;;24.74;48.31
9893;BME280;4985;49.092;8.542;2022-07-29T02:29:18;99022.81;;;24.65;48.63
9893;BME280;4985;49.092;8.542;2022-07-29T02:31:48;99022.78;;;24.60;48.87
9893;BME280;4985;49.092;8.542;2022-07-29T02:34:17;99023.00;;;24.53;49.07
9893;BME280;4985;49.092;8.542;2022-07-29T02:36:46;99024.63;;;24.49;49.42
9893;BME280;4985;49.092;8.542;2022-07-29T02:39:13;99013.78;;;24.39;49.86
9893;BME280;4985;49.092;8.542;2022-07-29T02:41:43;99016.75;;;24.37;49.74
9893;BME280;4985;49.092;8.542;2022-07-29T02:44:13;99022.06;;;24.32;49.83
9893;BME280;4985;49.092;8.542;2022-07-29T02:46:43;99019.88;;;24.29;49.84
9893;BME280;4985;49.092;8.542;2022-07-29T02:49:15;99017.97;;;24.25;50.15
9893;BME280;4985;49.092;8.542;2022-07-29T02:51:46;99021.97;;;24.22;50.27
9893;BME280;4985;49.092;8.542;2022-07-29T02:54:21;99027.88;;;24.19;50.19
9893;BME280;4985;49.092;8.542;2022-07-29T02:56:49;99019.25;;;24.17;50.31
9893;BME280;4985;49.092;8.542;2022-07-29T02:59:24;99016.84;;;24.16;50.20
9893;BME280;4985;49.092;8.542;2022-07-29T03:01:54;99009.53;;;24.11;50.57
9893;BME280;4985;49.092;8.542;2022-07-29T03:04:23;99022.12;;;24.05;50.72
9893;BME280;4985;49.092;8.542;2022-07-29T03:06:52;99015.41;;;24.03;50.89
9893;BME280;4985;49.092;8.542;2022-07-29T03:09:20;99018.63;;;24.05;50.68
9893;BME280;4985;49.092;8.542;2022-07-29T03:11:49;99021.84;;;24.02;50.90
9893;BME280;4985;49.092;8.542;2022-07-29T03:14:17;99024.75;;;24.00;51.06
9893;BME280;4985;49.092;8.542;2022-07-29T03:16:44;99023.94;;;23.95;51.34
9893;BME280;4985;49.092;8.542;2022-07-29T03:19:12;99015.56;;;23.91;51.21
9893;BME280;4985;49.092;8.542;2022-07-29T03:21:39;99012.81;;;23.86;51.44
9893;BME280;4985;49.092;8.542;2022-07-29T03:24:07;99014.41;;;23.82;51.71
9893;BME280;4985;49.092;8.542;2022-07-29T03:26:34;99013.81;;;23.75;51.88
9893;BME280;4985;49.092;8.542;2022-07-29T03:29:00;99015.44;;;23.76;51.71
9893;BME280;4985;49.092;8.542;2022-07-29T03:31:27;99012.19;;;23.74;51.65
9893;BME280;4985;49.092;8.542;2022-07-29T03:33:53;99017.31;;;23.75;51.63
9893;BME280;4985;49.092;8.542;2022-07-29T03:36:20;99008.94;;;23.72;51.79
9893;BME280;4985;49.092;8.542;2022-07-29T03:38:47;99015.69;;;23.74;51.66
9893;BME280;4985;49.092;8.542;2022-07-29T03:41:16;99011.91;;;23.70;51.98
9893;BME280;4985;49.092;8.542;2022-07-29T03:43:47;99016.72;;;23.68;52.11
9893;BME280;4985;49.092;8.542;2022-07-29T03:46:16;99016.94;;;23.67;51.94
9893;BME280;4985;49.092;8.542;2022-07-29T03:48:46;99008.03;;;23.61;52.03
9893;BME280;4985;49.092;8.542;2022-07-29T03:51:15;99013.94;;;23.58;52.26
9893;BME280;4985;49.092;8.542;2022-07-29T03:53:41;99020.41;;;23.62;52.26
9893;BME280;4985;49.092;8.542;2022-07-29T03:56:09;99016.09;;;23.61;52.21
9893;BME280;4985;49.092;8.542;2022-07-29T03:58:38;99018.72;;;23.56;52.47
9893;BME280;4985;49.092;8.542;2022-07-29T04:01:05;99019.75;;;23.55;52.58
9893;BME280;4985;49.092;8.542;2022-07-29T04:03:32;99019.75;;;23.55;52.49
9893;BME280;4985;49.092;8.542;2022-07-29T04:06:02;99024.09;;;23.56;52.49
9893;BME280;4985;49.092;8.542;2022-07-29T04:08:30;99023.47;;;23.49;52.75
9893;BME280;4985;49.092;8.542;2022-07-29T04:10:56;99033.44;;;23.53;52.39
9893;BME280;4985;49.092;8.542;2022-07-29T04:13:23;99024.31;;;23.54;52.47
9893;BME280;4985;49.092;8.542;2022-07-29T04:15:51;99024.91;;;23.57;52.31
9893;BME280;4985;49.092;8.542;2022-07-29T04:18:18;99031.41;;;23.61;52.38
9893;BME280;4985;49.092;8.542;2022-07-29T04:20:44;99032.16;;;23.56;52.27
9893;BME280;4985;49.092;8.542;2022-07-29T04:23:11;99033.78;;;23.57;52.41
9893;BME280;4985;49.092;8.542;2022-07-29T04:25:38;99039.63;;;23.54;52.43
9893;BME280;4985;49.092;8.542;2022-07-29T04:28:05;99041.78;;;23.52;52.59
9893;BME280;4985;49.092;8.542;2022-07-29T04:30:32;99030.78;;;23.53;52.67
9893;BME280;4985;49.092;8.542;2022-07-29T04:33:01;99029.47;;;23.56;52.38
9893;BME280;4985;49.092;8.542;2022-07-29T04:35:29;99035.72;;;23.62;52.32
9893;BME280;4985;49.092;8.542;2022-07-29T04:37:56;99033.78;;;23.57;52.52
9893;BME280;4985;49.092;8.542;2022-07-29T04:40:22;99037.53;;;23.56;52.62
9893;BME280;4985;49.092;8.542;2022-07-29T04:42:49;99042.91;;;23.56;52.51
9893;BME280;4985;49.092;8.542;2022-07-29T04:45:15;99038.13;;;23.58;52.49
9893;BME280;4985;49.092;8.542;2022-07-29T04:47:42;99040.81;;;23.58;52.35
9893;BME280;4985;49.092;8.542;2022-07-29T04:50:10;99042.06;;;23.56;52.57
9893;BME280;4985;49.092;8.542;2022-07-29T04:52:37;99037.72;;;23.49;52.92
9893;BME280;4985;49.092;8.542;2022-07-29T04:55:04;99039.38;;;23.56;52.71
9893;BME280;4985;49.092;8.542;2022-07-29T04:57:31;99046.56;;;23.45;53.18
9893;BME280;4985;49.092;8.542;2022-07-29T04:59:58;99050.59;;;23.47;53.44
9893;BME280;4985;49.092;8.542;2022-07-29T05:02:25;99051.31;;;23.38;53.82
9893;BME280;4985;49.092;8.542;2022-07-29T05:04:51;99047.97;;;23.31;54.04
9893;BME280;4985;49.092;8.542;2022-07-29T05:07:19;99056.03;;;23.31;54.02
9893;BME280;4985;49.092;8.542;2022-07-29T05:09:46;99065.28;;;23.40;53.63
9893;BME280;4985;49.092;8.542;2022-07-29T05:12:13;99055.34;;;23.40;53.81
9893;BME280;4985;49.092;8.542;2022-07-29T05:14:39;99059.72;;;23.46;53.21
9893;BME280;4985;49.092;8.542;2022-07-29T05:17:06;99062.16;;;23.48;53.20
9893;BME280;4985;49.092;8.542;2022-07-29T05:19:32;99061.66;;;23.51;53.20
9893;BME280;4985;49.092;8.542;2022-07-29T05:21:59;99067.56;;;23.53;53.09
9893;BME280;4985;49.092;8.542;2022-07-29T05:24:27;99069.78;;;23.56;53.15
9893;BME280;4985;49.092;8.542;2022-07-29T05:26:54;99069.84;;;23.61;52.96
9893;BME280;4985;49.092;8.542;2022-07-29T05:29:20;99070.59;;;23.57;53.27
9893;BME280;4985;49.092;8.542;2022-07-29T05:31:47;99072.53;;;23.61;53.43
9893;BME280;4985;49.092;8.542;2022-07-29T05:34:14;99078.72;;;23.62;53.66
9893;BME280;4985;49.092;8.542;2022-07-29T05:36:40;99077.84;;;23.56;53.53
9893;BME280;4985;49.092;8.542;2022-07-29T05:39:07;99071.72;;;23.61;53.28
9893;BME280;4985;49.092;8.542;2022-07-29T05:41:35;99084.09;;;23.62;53.14
9893;BME280;4985;49.092;8.542;2022-07-29T05:44:01;99080.34;;;23.63;53.04
9893;BME280;4985;49.092;8.542;2022-07-29T05:46:28;99084.63;;;23.64;53.11
9893;BME280;4985;49.092;8.542;2022-07-29T05:48:55;99081.69;;;23.65;52.80
9893;BME280;4985;49.092;8.542;2022-07-29T05:51:21;99086.81;;;23.67;52.66
9893;BME280;4985;49.092;8.542;2022-07-29T05:53:48;99087.66;;;23.67;52.28
9893;BME280;4985;49.092;8.542;2022-07-29T05:56:15;99096.28;;;23.69;51.91
9893;BME280;4985;49.092;8.542;2022-07-29T05:58:43;99094.13;;;23.71;51.78
9893;BME280;4985;49.092;8.542;2022-07-29T06:01:09;99089.56;;;23.72;51.60
9893;BME280;4985;49.092;8.542;2022-07-29T06:03:36;99092.81;;;23.74;51.45
9893;BME280;4985;49.092;8.542;2022-07-29T06:06:04;99096.31;;;23.74;51.29
9893;BME280;4985;49.092;8.542;2022-07-29T06:08:31;99086.63;;;23.73;51.17
9893;BME280;4985;49.092;8.542;2022-07-29T06:10:58;99088.53;;;23.78;51.11
9893;BME280;4985;49.092;8.542;2022-07-29T06:13:25;99090.41;;;23.77;51.01
9893;BME280;4985;49.092;8.542;2022-07-29T06:15:53;99099.88;;;23.80;51.17
9893;BME280;4985;49.092;8.542;2022-07-29T06:18:20;99095.31;;;23.80;51.17
9893;BME280;4985;49.092;8.542;2022-07-29T06:20:49;99106.88;;;23.81;50.89
9893;BME280;4985;49.092;8.542;2022-07-29T06:23:15;99107.94;;;23.80;50.73
9893;BME280;4985;49.092;8.542;2022-07-29T06:25:42;99105.81;;;23.82;50.64
9893;BME280;4985;49.092;8.542;2022-07-29T06:28:08;99108.75;;;23.80;50.46
9893;BME280;4985;49.092;8.542;2022-07-29T06:30:35;99112.00;;;23.83;50.43
9893;BME280;4985;49.092;8.542;2022-07-29T06:33:03;99110.38;;;23.81;50.32
9893;BME280;4985;49.092;8.542;2022-07-29T06:35:30;99104.47;;;23.85;50.43
9893;BME280;4985;49.092;8.542;2022-07-29T06:38:00;99105.81;;;23.82;50.47
9893;BME280;4985;49.092;8.542;2022-07-29T06:40:26;99112.00;;;23.83;50.65
9893;BME280;4985;49.092;8.542;2022-07-29T06:43:11;99116.28;;;23.84;50.53
9893;BME280;4985;49.092;8.542;2022-07-29T06:45:37;99108.50;;;23.82;50.51
9893;BME280;4985;49.092;8.542;2022-07-29T06:48:07;99110.91;;;23.84;50.53
9893;BME280;4985;49.092;8.542;2022-07-29T06:50:34;99116.56;;;23.82;50.46
9893;BME280;4985;49.092;8.542;2022-07-29T06:53:00;99113.59;;;23.84;50.52
9893;BME280;4985;49.092;8.542;2022-07-29T06:55:27;99113.59;;;23.84;50.47
9893;BME280;4985;49.092;8.542;2022-07-29T06:57:54;99121.66;;;23.84;50.61
9893;BME280;4985;49.092;8.542;2022-07-29T07:00:20;99122.22;;;23.86;50.55
9893;BME280;4985;49.092;8.542;2022-07-29T07:02:47;99124.41;;;23.89;50.58
9893;BME280;4985;49.092;8.542;2022-07-29T07:05:15;99125.97;;;23.85;50.53
9893;BME280;4985;49.092;8.542;2022-07-29T07:07:42;99123.84;;;23.87;50.52
9893;BME280;4985;49.092;8.542;2022-07-29T07:10:08;99123.34;;;23.90;50.55
9893;BME280;4985;49.092;8.542;2022-07-29T07:12:35;99126.28;;;23.88;50.49
9893;BME280;4985;49.092;8.542;2022-07-29T07:15:02;99120.41;;;23.91;50.50
9893;BME280;4985;49.092;8.542;2022-07-29T07:17:29;99130.34;;;23.91;50.27
9893;BME280;4985;49.092;8.542;2022-07-29T07:19:56;99129.28;;;23.92;50.03
9893;BME280;4985;49.092;8.542;2022-07-29T07:22:23;99130.91;;;23.93;50.06
9893;BME280;4985;49.092;8.542;2022-07-29T07:24:50;99133.03;;;23.91;49.94
9893;BME280;4985;49.092;8.542;2022-07-29T07:27:17;99132.53;;;23.94;49.69
9893;BME280;4985;49.092;8.542;2022-07-29T07:29:43;99135.22;;;23.94;49.58
9893;BME280;4985;49.092;8.542;2022-07-29T07:32:10;99131.19;;;23.96;49.53
9893;BME280;4985;49.092;8.542;2022-07-29T07:34:38;99131.47;;;23.95;49.47
9893;BME280;4985;49.092;8.542;2022-07-29T07:37:05;99129.03;;;23.93;49.54
9893;BME280;4985;49.092;8.542;2022-07-29T07:39:33;99123.13;;;23.96;49.38
9893;BME280;4985;49.092;8.542;2022-07-29T07:42:00;99133.09;;;23.96;49.36
9893;BME280;4985;49.092;8.542;2022-07-29T07:44:26;99133.91;;;23.96;49.32
9893;BME280;4985;49.092;8.542;2022-07-29T07:46:53;99137.13;;;23.98;48.98
9893;BME280;4985;49.092;8.542;2022-07-29T07:49:20;99135.50;;;23.97;48.90
9893;BME280;4985;49.092;8.542;2022-07-29T07:51:46;99141.69;;;23.98;48.79
9893;BME280;4985;49.092;8.542;2022-07-29T07:54:13;99138.75;;;23.99;48.54
9893;BME280;4985;49.092;8.542;2022-07-29T07:56:41;99141.69;;;23.98;48.51
9893;BME280;4985;49.092;8.542;2022-07-29T07:59:07;99143.31;;;23.99;48.37
9893;BME280;4985;49.092;8.542;2022-07-29T08:01:34;99135.25;;;23.99;48.70
9893;BME280;4985;49.092;8.542;2022-07-29T08:04:01;99138.75;;;23.99;48.40
9893;BME280;4985;49.092;8.542;2022-07-29T08:06:27;99136.88;;;24.00;48.58
9893;BME280;4985;49.092;8.542;2022-07-29T08:08:54;99135.56;;;24.02;48.57
9893;BME280;4985;49.092;8.542;2022-07-29T08:11:20;99144.47;;;24.03;48.63
9893;BME280;4985;49.092;8.542;2022-07-29T08:13:48;99132.06;;;24.02;48.64
9893;BME280;4985;49.092;8.542;2022-07-29T08:16:15;99132.63;;;24.04;48.61
9893;BME280;4985;49.092;8.542;2022-07-29T08:18:43;99135.31;;;24.04;48.60
9893;BME280;4985;49.092;8.542;2022-07-29T08:21:10;99133.69;;;24.03;48.55
9893;BME280;4985;49.092;8.542;2022-07-29T08:23:37;99143.12;;;24.05;48.08
9893;BME280;4985;49.092;8.542;2022-07-29T08:26:05;99145.31;;;24.08;47.80
9893;BME280;4985;49.092;8.542;2022-07-29T08:28:36;99146.63;;;24.06;48.24
9893;BME280;4985;49.092;8.542;2022-07-29T08:31:04;99146.63;;;24.06;47.67
9893;BME280;4985;49.092;8.542;2022-07-29T08:33:30;99147.19;;;24.08;48.09
9893;BME280;4985;49.092;8.542;2022-07-29T08:35:57;99145.00;;;24.05;48.33
9893;BME280;4985;49.092;8.542;2022-07-29T08:38:24;99149.88;;;24.08;48.13
9893;BME280;4985;49.092;8.542;2022-07-29T08:40:51;99153.38;;;24.08;48.16
9893;BME280;4985;49.092;8.542;2022-07-29T08:43:19;99149.63;;;24.09;48.11
9893;BME280;4985;49.092;8.542;2022-07-29T08:45:47;99152.31;;;24.09;48.14
9893;BME280;4985;49.092;8.542;2022-07-29T08:48:18;99150.41;;;24.10;48.09
9893;BME280;4985;49.092;8.542;2022-07-29T08:50:47;99161.19;;;24.10;48.07
9893;BME280;4985;49.092;8.542;2022-07-29T08:53:16;99157.41;;;24.11;47.99
9893;BME280;4985;49.092;8.542;2022-07-29T08:55:44;99153.66;;;24.12;47.95
9893;BME280;4985;49.092;8.542;2022-07-29T08:58:11;99155.31;;;24.13;47.89
9893;BME280;4985;49.092;8.542;2022-07-29T09:00:43;99155.00;;;24.09;47.94
9893;BME280;4985;49.092;8.542;2022-07-29T09:03:12;99162.31;;;24.14;47.86
9893;BME280;4985;49.092;8.542;2022-07-29T09:05:43;99160.44;;;24.15;47.86
9893;BME280;4985;49.092;8.542;2022-07-29T09:08:11;99158.56;;;24.15;47.88
9893;BME280;4985;49.092;8.542;2022-07-29T09:10:38;99150.75;;;24.14;47.80
9893;BME280;4985;49.092;8.542;2022-07-29T09:13:05;99149.41;;;24.16;47.77
9893;BME280;4985;49.092;8.542;2022-07-29T09:15:32;99158.84;;;24.19;47.75
9893;BME280;4985;49.092;8.542;2022-07-29T09:17:59;99160.19;;;24.16;47.76
9893;BME280;4985;49.092;8.542;2022-07-29T09:20:26;99168.78;;;24.18;47.71
9893;BME280;4985;49.092;8.542;2022-07-29T09:23:14;99163.41;;;24.18;47.73
9893;BME280;4985;49.092;8.542;2022-07-29T09:25:41;99155.63;;;24.22;47.47
9893;BME280;4985;49.092;8.542;2022-07-29T09:28:09;99160.53;;;24.25;47.16
9893;BME280;4985;49.092;8.542;2022-07-29T09:30:49;99150.00;;;24.23;47.44
9893;BME280;4985;49.092;8.542;2022-07-29T09:33:16;99159.94;;;24.23;47.46
9893;BME280;4985;49.092;8.542;2022-07-29T09:35:43;99155.37;;;24.23;47.54
9893;BME280;4985;49.092;8.542;2022-07-29T09:38:10;99150.84;;;24.24;47.48
9893;BME280;4985;49.092;8.542;2022-07-29T09:40:39;99148.97;;;24.24;47.50
9893;BME280;4985;49.092;8.542;2022-07-29T09:43:10;99142.19;;;24.22;47.39
9893;BME280;4985;49.092;8.542;2022-07-29T09:45:37;99137.94;;;24.26;47.37
9893;BME280;4985;49.092;8.542;2022-07-29T09:48:13;99141.69;;;24.25;47.38
9893;BME280;4985;49.092;8.542;2022-07-29T09:50:41;99139.56;;;24.27;47.30
9893;BME280;4985;49.092;8.542;2022-07-29T09:53:09;99137.69;;;24.27;47.16
9893;BME280;4985;49.092;8.542;2022-07-29T09:55:47;99142.00;;;24.28;47.18
9893;BME280;4985;49.092;8.542;2022-07-29T09:58:16;99142.56;;;24.30;46.68
9893;BME280;4985;49.092;8.542;2022-07-29T10:00:44;99140.94;;;24.29;46.98
9893;BME280;4985;49.092;8.542;2022-07-29T10:03:11;99138.50;;;24.28;47.09
9893;BME280;4985;49.092;8.542;2022-07-29T10:05:38;99139.63;;;24.32;46.61
9893;BME280;4985;49.092;8.542;2022-07-29T10:08:07;99139.63;;;24.32;46.70
9893;BME280;4985;49.092;8.542;2022-07-29T10:10:35;99135.06;;;24.32;46.70
9893;BME280;4985;49.092;8.542;2022-07-29T10:13:05;99135.59;;;24.34;46.50
9893;BME280;4985;49.092;8.542;2022-07-29T10:15:34;99139.37;;;24.33;46.68
9893;BME280;4985;49.092;8.542;2022-07-29T10:18:02;99139.09;;;24.35;46.71
9893;BME280;4985;49.092;8.542;2022-07-29T10:20:29;99135.88;;;24.33;46.62
9893;BME280;4985;49.092;8.542;2022-07-29T10:22:56;99137.47;;;24.34;46.72
9893;BME280;4985;49.092;8.542;2022-07-29T10:25:23;99131.87;;;24.35;46.63
9893;BME280;4985;49.092;8.542;2022-07-29T10:27:50;99128.91;;;24.37;46.31
9893;BME280;4985;49.092;8.542;2022-07-29T10:30:20;99130.53;;;24.38;46.46
9893;BME280;4985;49.092;8.542;2022-07-29T10:32:57;99131.34;;;24.38;46.50
9893;BME280;4985;49.092;8.542;2022-07-29T10:35:43;99123.28;;;24.38;46.43
9893;BME280;4985;49.092;8.542;2022-07-29T10:38:30;99115.22;;;24.38;46.46
9893;BME280;4985;49.092;8.542;2022-07-29T10:41:10;99126.53;;;24.41;46.38
9893;BME280;4985;49.092;8.542;2022-07-29T10:43:58;99116.56;;;24.41;46.36
9893;BME280;4985;49.092;8.542;2022-07-29T10:46:27;99118.44;;;24.41;46.11
9893;BME280;4985;49.092;8.542;2022-07-29T10:49:11;99119.53;;;24.45;46.28
9893;BME280;4985;49.092;8.542;2022-07-29T10:51:54;99118.47;;;24.46;46.19
9893;BME280;4985;49.092;8.542;2022-07-29T10:54:39;99115.78;;;24.46;46.13
9893;BME280;4985;49.092;8.542;2022-07-29T10:57:15;99109.91;;;24.49;46.14
9893;BME280;4985;49.092;8.542;2022-07-29T10:59:43;99110.16;;;24.47;46.12
9893;BME280;4985;49.092;8.542;2022-07-29T11:02:42;99107.22;;;24.49;46.08
9893;BME280;4985;49.092;8.542;2022-07-29T11:05:11;99106.16;;;24.50;46.02
9893;BME280;4985;49.092;8.542;2022-07-29T11:07:40;99107.75;;;24.51;45.89
9893;BME280;4985;49.092;8.542;2022-07-29T11:10:26;99117.47;;;24.52;45.92
9893;BME280;4985;49.092;8.542;2022-07-29T11:12:53;99116.37;;;24.53;45.95
9893;BME280;4985;49.092;8.542;2022-07-29T11:15:20;99116.13;;;24.54;45.89
9893;BME280;4985;49.092;8.542;2022-07-29T11:18:05;99111.56;;;24.55;45.84
9893;BME280;4985;49.092;8.542;2022-07-29T11:20:33;99109.66;;;24.55;45.65
9893;BME280;4985;49.092;8.542;2022-07-29T11:23:01;99098.09;;;24.55;45.83
9893;BME280;4985;49.092;8.542;2022-07-29T11:25:28;99099.72;;;24.56;45.77
9893;BME280;4985;49.092;8.542;2022-07-29T11:28:09;99096.53;;;24.59;45.69
9893;BME280;4985;49.092;8.542;2022-07-29T11:30:50;99102.13;;;24.57;45.70
9893;BME280;4985;49.092;8.542;2022-07-29T11:33:32;99104.59;;;24.59;45.68
9893;BME280;4985;49.092;8.542;2022-07-29T11:36:09;99095.47;;;24.60;45.63
9893;BME280;4985;49.092;8.542;2022-07-29T11:38:36;99077.13;;;24.57;45.50
9893;BME280;4985;49.092;8.542;2022-07-29T11:41:23;99087.94;;;24.62;45.38
9893;BME280;4985;49.092;8.542;2022-07-29T11:43:51;99088.19;;;24.60;45.33
9893;BME280;4985;49.092;8.542;2022-07-29T11:46:45;99094.94;;;24.63;45.44
9893;BME280;4985;49.092;8.542;2022-07-29T11:49:18;99097.62;;;24.63;45.36
9893;BME280;4985;49.092;8.542;2022-07-29T11:51:50;99103.53;;;24.65;45.21
9893;BME280;4985;49.092;8.542;2022-07-29T11:54:23;99103.03;;;24.68;45.06
9893;BME280;4985;49.092;8.542;2022-07-29T11:56:51;99091.22;;;24.69;44.96
9893;BME280;4985;49.092;8.542;2022-07-29T11:59:19;99100.66;;;24.72;44.92
9893;BME280;4985;49.092;8.542;2022-07-29T12:01:52;99099.56;;;24.73;44.94
9893;BME280;4985;49.092;8.542;2022-07-29T12:04:21;99094.44;;;24.71;44.76
9893;BME280;4985;49.092;8.542;2022-07-29T12:06:49;99096.63;;;24.74;44.76
9893;BME280;4985;49.092;8.542;2022-07-29T12:09:16;99088.28;;;24.76;45.02
9893;BME280;4985;49.092;8.542;2022-07-29T12:11:45;99089.62;;;24.78;44.62
9893;BME280;4985;49.092;8.542;2022-07-29T12:14:24;99085.87;;;24.79;44.83
9893;BME280;4985;49.092;8.542;2022-07-29T12:16:51;99081.06;;;24.81;44.81
9893;BME280;4985;49.092;8.542;2022-07-29T12:19:18;99078.37;;;24.81;44.89
9893;BME280;4985;49.092;8.542;2022-07-29T12:21:47;99077.28;;;24.82;44.86
9893;BME280;4985;49.092;8.542;2022-07-29T12:24:14;99084.28;;;24.83;44.62
9893;BME280;4985;49.092;8.542;2022-07-29T12:26:49;99089.41;;;24.85;44.74
9893;BME280;4985;49.092;8.542;2022-07-29T12:29:16;99088.34;;;24.86;44.48
9893;BME280;4985;49.092;8.542;2022-07-29T12:31:43;99095.34;;;24.87;44.46
9893;BME280;4985;49.092;8.542;2022-07-29T12:34:12;99089.69;;;24.88;44.52
9893;BME280;4985;49.092;8.542;2022-07-29T12:36:40;99095.06;;;24.88;44.32
9893;BME280;4985;49.092;8.542;2022-07-29T12:39:09;99092.94;;;24.90;44.44
9893;BME280;4985;49.092;8.542;2022-07-29T12:41:37;99087.00;;;24.88;44.23
9893;BME280;4985;49.092;8.542;2022-07-29T12:44:04;99095.13;;;24.93;44.15
9893;BME280;4985;49.092;8.542;2022-07-29T12:46:30;99087.84;;;24.94;44.21
9893;BME280;4985;49.092;8.542;2022-07-29T12:48:57;99078.69;;;24.95;44.11
9893;BME280;4985;49.092;8.542;2022-07-29T12:51:30;99092.97;;;24.95;44.22
9893;BME280;4985;49.092;8.542;2022-07-29T12:54:07;99083.00;;;24.96;44.18
9893;BME280;4985;49.092;8.542;2022-07-29T12:56:37;99085.97;;;25.00;44.03
9893;BME280;4985;49.092;8.542;2022-07-29T12:59:14;99084.34;;;24.98;44.20
9893;BME280;4985;49.092;8.542;2022-07-29T13:01:42;99084.91;;;25.01;44.27
9893;BME280;4985;49.092;8.542;2022-07-29T13:04:09;99088.44;;;25.01;44.19
9893;BME280;4985;49.092;8.542;2022-07-29T13:06:38;99086.56;;;25.02;44.01
9893;BME280;4985;49.092;8.542;2022-07-29T13:09:08;99094.41;;;25.03;43.84
9893;BME280;4985;49.092;8.542;2022-07-29T13:11:38;99096.81;;;25.05;43.99
9893;BME280;4985;49.092;8.542;2022-07-29T13:14:07;99093.84;;;25.06;43.97
9893;BME280;4985;49.092;8.542;2022-07-29T13:16:34;99092.78;;;25.07;43.77
9893;BME280;4985;49.092;8.542;2022-07-29T13:19:10;99104.91;;;25.10;43.72
9893;BME280;4985;49.092;8.542;2022-07-29T13:21:38;99106.53;;;25.11;43.37
9893;BME280;4985;49.092;8.542;2022-07-29T13:24:06;99110.84;;;25.12;43.35
9893;BME280;4985;49.092;8.542;2022-07-29T13:26:33;99111.66;;;25.12;43.48
9893;BME280;4985;49.092;8.542;2022-07-29T13:29:02;99109.75;;;25.13;43.80
9893;BME280;4985;49.092;8.542;2022-07-29T13:31:28;99109.53;;;25.14;43.42
9893;BME280;4985;49.092;8.542;2022-07-29T13:33:55;99107.66;;;25.15;43.78
9893;BME280;4985;49.092;8.542;2022-07-29T13:36:22;99105.50;;;25.17;43.58